createdAt,value
2016-10-18T00:00:05.928Z,1.95
2016-10-18T00:01:05.909Z,2.09
2016-10-18T00:02:05.898Z,2.04
2016-10-18T00:03:05.874Z,2.18
2016-10-18T00:04:05.870Z,2.11
2016-10-18T00:05:05.842Z,2.09
2016-10-18T00:06:05.824Z,2.18
2016-10-18T00:07:05.809Z,2.37
2016-10-18T00:08:05.827Z,2.4
2016-10-18T00:09:05.807Z,2.26
2016-10-18T00:10:05.792Z,2.14
2016-10-18T00:11:05.767Z,2.08
2016-10-18T00:12:05.761Z,1.89
2016-10-18T00:13:05.745Z,1.88
2016-10-18T00:14:05.707Z,1.64
2016-10-18T00:15:05.732Z,1.6
2016-10-18T00:16:05.679Z,1.47
2016-10-18T00:17:05.678Z,1.18
2016-10-18T00:18:05.683Z,1.11
2016-10-18T00:19:05.651Z,0.9
2016-10-18T00:20:05.642Z,0.84
2016-10-18T00:21:05.636Z,0.74
2016-10-18T00:22:05.639Z,0.81
2016-10-18T00:23:05.626Z,0.71
2016-10-18T00:24:05.597Z,0.75
2016-10-18T00:25:05.567Z,0.74
2016-10-18T00:26:05.560Z,0.71
2016-10-18T00:27:05.567Z,0.7
2016-10-18T00:28:05.563Z,0.7
2016-10-18T00:29:05.544Z,0.7
2016-10-18T00:30:05.821Z,0.7
2016-10-18T00:31:05.485Z,0.64
2016-10-18T00:32:05.496Z,0.56
2016-10-18T00:33:05.456Z,0.52
2016-10-18T00:34:05.450Z,0.56
2016-10-18T00:35:05.442Z,0.67
2016-10-18T00:36:05.430Z,0.71
2016-10-18T00:37:05.390Z,0.63
2016-10-18T00:38:05.393Z,0.6
2016-10-18T00:39:05.395Z,0.52
2016-10-18T00:40:05.345Z,0.63
2016-10-18T00:41:05.363Z,0.52
2016-10-18T00:42:05.328Z,0.48
2016-10-18T00:43:05.323Z,0.53
2016-10-18T00:44:05.322Z,0.62
2016-10-18T00:45:05.591Z,0.59
2016-10-18T00:46:05.264Z,0.49
2016-10-18T00:47:05.262Z,0.63
2016-10-18T00:48:05.272Z,0.59
2016-10-18T00:49:05.529Z,0.67
2016-10-18T00:50:05.816Z,0.96
2016-10-18T00:51:05.227Z,0.89
2016-10-18T00:52:05.197Z,0.81
2016-10-18T00:53:05.162Z,0.7
2016-10-18T00:54:05.147Z,0.71
2016-10-18T00:55:05.133Z,0.71
2016-10-18T00:56:05.139Z,0.78
2016-10-18T00:57:05.117Z,0.77
2016-10-18T00:58:05.138Z,0.57
2016-10-18T00:59:05.101Z,0.67
2016-10-18T01:00:05.095Z,0.75
2016-10-18T01:01:05.067Z,0.67
2016-10-18T01:02:05.041Z,0.67
2016-10-18T01:03:05.028Z,0.53
2016-10-18T01:04:05.029Z,0.44
2016-10-18T01:05:05.018Z,0.34
2016-10-18T01:06:04.999Z,0.13
2016-10-18T01:07:04.978Z,0.13
2016-10-18T01:08:04.979Z,0.3
2016-10-18T01:09:04.955Z,0.3
2016-10-18T01:10:04.926Z,0.34
2016-10-18T01:11:04.913Z,0.38
2016-10-18T01:12:04.888Z,0.49
2016-10-18T01:13:04.892Z,0.34
2016-10-18T01:14:04.889Z,0.3
2016-10-18T01:15:04.872Z,0.25
2016-10-18T01:16:04.825Z,0.15
2016-10-18T01:17:04.835Z,0.19
2016-10-18T01:18:04.828Z,0.1
2016-10-18T01:19:04.794Z,0.13
2016-10-18T01:20:04.795Z,0.04
2016-10-18T01:21:04.779Z,-0.02
2016-10-18T01:22:04.751Z,-0.09
2016-10-18T01:23:04.766Z,-0.05
2016-10-18T01:24:04.723Z,-0.06
2016-10-18T01:25:04.714Z,-0.13
2016-10-18T01:26:04.697Z,-0.08
2016-10-18T01:27:04.684Z,-0.05
2016-10-18T01:28:04.659Z,-0.09
2016-10-18T01:29:04.647Z,-0.13
2016-10-18T01:30:04.621Z,-0.06
2016-10-18T01:31:04.614Z,-0.03
2016-10-18T01:32:04.890Z,0.12
2016-10-18T01:33:04.591Z,0.04
2016-10-18T01:34:04.577Z,0.08
2016-10-18T01:35:04.550Z,0.13
2016-10-18T01:36:04.536Z,-0.01
2016-10-18T01:37:04.535Z,-0.12
2016-10-18T01:38:04.494Z,-0.16
2016-10-18T01:39:04.482Z,-0.09
2016-10-18T01:40:04.460Z,-0.12
2016-10-18T01:41:04.446Z,-0.12
2016-10-18T01:42:04.457Z,-0.14
2016-10-18T01:43:04.426Z,-0.08
2016-10-18T01:44:04.411Z,-0.13
2016-10-18T01:45:04.396Z,-0.02
2016-10-18T01:46:04.364Z,-0.09
2016-10-18T01:47:04.354Z,-0.13
2016-10-18T01:48:04.329Z,-0.19
2016-10-18T01:49:04.337Z,-0.17
2016-10-18T01:50:04.328Z,-0.06
2016-10-18T01:51:04.299Z,-0.01
2016-10-18T01:52:04.270Z,-0.06
2016-10-18T01:53:04.281Z,-0.02
2016-10-18T01:54:04.261Z,0.08
2016-10-18T01:55:04.216Z,0.12
2016-10-18T01:56:04.201Z,0.08
2016-10-18T01:57:04.206Z,0.05
2016-10-18T01:58:04.181Z,0.13
2016-10-18T01:59:04.209Z,-0.06
2016-10-18T02:00:04.478Z,0.1
2016-10-18T02:01:04.145Z,0.02
2016-10-18T02:02:04.164Z,0.15
2016-10-18T02:03:04.129Z,0.1
2016-10-18T02:04:04.092Z,0.17
2016-10-18T02:05:04.082Z,0.07
2016-10-18T02:06:04.115Z,0.07
2016-10-18T02:07:04.045Z,0.16
2016-10-18T02:08:04.027Z,0.12
2016-10-18T02:09:04.042Z,-0.02
2016-10-18T02:10:04.002Z,-0.01
2016-10-18T02:11:03.999Z,-0.12
2016-10-18T02:12:03.958Z,-0.02
2016-10-18T02:13:04.002Z,0.02
2016-10-18T02:14:03.949Z,0.12
2016-10-18T02:15:03.934Z,0.2
2016-10-18T02:16:03.914Z,0.16
2016-10-18T02:17:03.897Z,0.16
2016-10-18T02:18:03.883Z,0.19
2016-10-18T02:19:03.861Z,0.04
2016-10-18T02:20:03.842Z,0.16
2016-10-18T02:21:03.813Z,0.35
2016-10-18T02:22:03.816Z,0.25
2016-10-18T02:23:03.798Z,0.33
2016-10-18T02:24:03.837Z,0.17
2016-10-18T02:25:03.773Z,0.12
2016-10-18T02:26:03.755Z,0.1
2016-10-18T02:27:03.746Z,0.15
2016-10-18T02:28:03.731Z,0.15
2016-10-18T02:29:03.699Z,0.12
2016-10-18T02:30:03.720Z,0.31
2016-10-18T02:31:03.679Z,0.34
2016-10-18T02:32:03.656Z,0.33
2016-10-18T02:33:03.651Z,0.45
2016-10-18T02:34:03.644Z,0.48
2016-10-18T02:35:03.623Z,0.4
2016-10-18T02:36:03.611Z,0.34
2016-10-18T02:37:03.583Z,0.26
2016-10-18T02:38:03.586Z,0.34
2016-10-18T02:39:03.573Z,0.37
2016-10-18T02:40:03.536Z,0.44
2016-10-18T02:41:03.558Z,0.3
2016-10-18T02:42:03.549Z,0.37
2016-10-18T02:43:03.545Z,0.3
2016-10-18T02:44:03.512Z,0.17
2016-10-18T02:45:03.480Z,0.13
2016-10-18T02:46:03.469Z,0.31
2016-10-18T02:47:03.437Z,0.23
2016-10-18T02:48:03.427Z,0.23
2016-10-18T02:49:03.417Z,0.3
2016-10-18T02:50:03.409Z,0.25
2016-10-18T02:51:03.435Z,0.3
2016-10-18T02:52:03.371Z,0.25
2016-10-18T02:53:03.359Z,0.37
2016-10-18T02:54:03.366Z,0.35
2016-10-18T02:55:03.313Z,0.33
2016-10-18T02:56:03.371Z,0.34
2016-10-18T02:57:03.308Z,0.35
2016-10-18T02:58:03.299Z,0.3
2016-10-18T02:59:03.290Z,0.26
2016-10-18T03:00:03.261Z,0.37
2016-10-18T03:01:03.226Z,0.35
2016-10-18T03:02:03.516Z,0.37
2016-10-18T03:03:03.212Z,0.34
2016-10-18T03:04:03.228Z,0.43
2016-10-18T03:05:03.166Z,0.49
2016-10-18T03:06:03.172Z,0.63
2016-10-18T03:07:03.153Z,0.62
2016-10-18T03:08:03.123Z,0.51
2016-10-18T03:09:03.143Z,0.63
2016-10-18T03:10:03.099Z,0.62
2016-10-18T03:11:03.102Z,0.57
2016-10-18T03:12:03.066Z,0.62
2016-10-18T03:13:03.064Z,0.62
2016-10-18T03:14:03.052Z,0.63
2016-10-18T03:15:03.024Z,0.64
2016-10-18T03:16:03.044Z,0.7
2016-10-18T03:17:03.031Z,0.67
2016-10-18T03:18:02.999Z,0.75
2016-10-18T03:19:02.986Z,0.67
2016-10-18T03:20:03.255Z,0.62
2016-10-18T03:21:02.967Z,0.67
2016-10-18T03:22:02.940Z,0.72
2016-10-18T03:23:02.923Z,0.6
2016-10-18T03:24:02.924Z,0.62
2016-10-18T03:25:02.912Z,0.57
2016-10-18T03:26:03.183Z,0.52
2016-10-18T03:27:02.849Z,0.51
2016-10-18T03:28:02.837Z,0.45
2016-10-18T03:29:02.830Z,0.49
2016-10-18T03:30:02.858Z,0.35
2016-10-18T03:31:02.809Z,0.34
2016-10-18T03:32:02.785Z,0.37
2016-10-18T03:33:02.788Z,0.37
2016-10-18T03:34:02.760Z,0.35
2016-10-18T03:35:02.771Z,0.22
2016-10-18T03:36:02.737Z,0.4
2016-10-18T03:37:02.703Z,0.31
2016-10-18T03:38:02.718Z,0.49
2016-10-18T03:39:02.682Z,0.41
2016-10-18T03:40:02.698Z,0.33
2016-10-18T03:41:02.670Z,0.17
2016-10-18T03:42:02.656Z,0.23
2016-10-18T03:43:02.627Z,0.28
2016-10-18T03:44:02.633Z,0.23
2016-10-18T03:45:02.603Z,0.25
2016-10-18T03:46:02.603Z,0.22
2016-10-18T03:47:02.571Z,0.25
2016-10-18T03:48:02.566Z,0.19
2016-10-18T03:49:02.538Z,0.23
2016-10-18T03:50:02.548Z,0.19
2016-10-18T03:51:02.504Z,0.3
2016-10-18T03:52:02.487Z,0.35
2016-10-18T03:53:02.488Z,0.45
2016-10-18T03:54:02.535Z,0.3
2016-10-18T03:55:02.484Z,0.19
2016-10-18T03:56:02.438Z,0.22
2016-10-18T03:57:02.453Z,0.25
2016-10-18T03:58:02.417Z,0.13
2016-10-18T03:59:02.408Z,0.15
2016-10-18T04:00:02.372Z,0.3
2016-10-18T04:01:02.391Z,0.16
2016-10-18T04:02:02.357Z,0.17
2016-10-18T04:03:02.356Z,0.16
2016-10-18T04:04:02.340Z,0.13
2016-10-18T04:05:02.328Z,0.1
2016-10-18T04:06:02.313Z,0.02
2016-10-18T04:07:02.292Z,0.1
2016-10-18T04:08:02.270Z,-0.05
2016-10-18T04:09:02.242Z,-0.08
2016-10-18T04:10:02.237Z,-0.01
2016-10-18T04:11:02.247Z,0.1
2016-10-18T04:12:02.221Z,-0.09
2016-10-18T04:13:02.198Z,-0.01
2016-10-18T04:14:02.200Z,0.15
2016-10-18T04:15:02.159Z,0.13
2016-10-18T04:16:02.150Z,0.13
2016-10-18T04:17:02.446Z,0.08
2016-10-18T04:18:02.102Z,-0.02
2016-10-18T04:19:02.113Z,0.05
2016-10-18T04:20:02.094Z,0.2
2016-10-18T04:21:02.065Z,0.07
2016-10-18T04:22:02.046Z,0.1
2016-10-18T04:23:02.052Z,0.12
2016-10-18T04:24:02.048Z,0.16
2016-10-18T04:25:02.036Z,0.13
2016-10-18T04:26:01.993Z,0.25
2016-10-18T04:27:01.968Z,0.15
2016-10-18T04:28:02.001Z,0.23
2016-10-18T04:29:01.955Z,0.2
2016-10-18T04:30:01.947Z,0.16
2016-10-18T04:31:01.919Z,0.12
2016-10-18T04:32:01.917Z,0.12
2016-10-18T04:33:01.877Z,0.1
2016-10-18T04:34:01.863Z,0.12
2016-10-18T04:35:01.913Z,-0.01
2016-10-18T04:36:01.833Z,0.08
2016-10-18T04:37:01.843Z,0.12
2016-10-18T04:38:01.811Z,0.16
2016-10-18T04:39:01.831Z,0.08
2016-10-18T04:40:01.805Z,0.12
2016-10-18T04:41:01.775Z,0.25
2016-10-18T04:42:01.755Z,0.28
2016-10-18T04:43:01.729Z,0.31
2016-10-18T04:44:01.773Z,0.26
2016-10-18T04:45:01.705Z,0.25
2016-10-18T04:46:01.698Z,0.07
2016-10-18T04:47:01.675Z,0.1
2016-10-18T04:48:01.667Z,0.15
2016-10-18T04:49:01.657Z,0.16
2016-10-18T04:50:01.641Z,0.16
2016-10-18T04:51:01.625Z,0.17
2016-10-18T04:52:01.595Z,0.1
2016-10-18T04:53:01.570Z,0.15
2016-10-18T04:54:01.578Z,0.07
2016-10-18T04:55:01.548Z,0.04
2016-10-18T04:56:01.539Z,0.12
2016-10-18T04:57:01.559Z,0.1
2016-10-18T04:58:01.501Z,0.1
2016-10-18T04:59:01.495Z,0.1
2016-10-18T05:00:01.485Z,0.13
2016-10-18T05:01:01.510Z,0.07
2016-10-18T05:02:01.441Z,0.1
2016-10-18T05:03:01.740Z,0.15
2016-10-18T05:04:01.456Z,0.15
2016-10-18T05:05:01.423Z,0.15
2016-10-18T05:06:01.379Z,0.28
2016-10-18T05:07:01.371Z,0.17
2016-10-18T05:08:01.353Z,0.2
2016-10-18T05:09:01.334Z,0.05
2016-10-18T05:10:01.347Z,0.05
2016-10-18T05:11:01.324Z,0.17
2016-10-18T05:12:01.297Z,0.17
2016-10-18T05:13:01.298Z,0.15
2016-10-18T05:14:01.271Z,0.15
2016-10-18T05:15:01.257Z,0.05
2016-10-18T05:16:01.246Z,0.05
2016-10-18T05:17:01.227Z,0.1
2016-10-18T05:18:01.207Z,0.01
2016-10-18T05:19:01.207Z,-0.06
2016-10-18T05:20:01.197Z,-0.05
2016-10-18T05:21:01.180Z,-0.01
2016-10-18T05:22:01.152Z,-0.02
2016-10-18T05:23:01.143Z,-0.12
2016-10-18T05:24:01.124Z,-0.01
2016-10-18T05:25:01.083Z,-0.08
2016-10-18T05:26:01.147Z,-0.05
2016-10-18T05:27:01.113Z,-0.06
2016-10-18T05:28:01.054Z,0.12
2016-10-18T05:29:01.045Z,0.12
2016-10-18T05:30:00.998Z,-0.03
2016-10-18T05:31:00.997Z,-0.02
2016-10-18T05:32:01.321Z,-0.08
2016-10-18T05:33:00.972Z,-0.08
2016-10-18T05:34:00.942Z,0.01
2016-10-18T05:35:00.937Z,-0.03
2016-10-18T05:36:00.920Z,0.02
2016-10-18T05:37:00.895Z,0.1
2016-10-18T05:38:00.891Z,0.04
2016-10-18T05:39:00.881Z,0.12
2016-10-18T05:40:00.850Z,0.12
2016-10-18T05:41:00.841Z,0.12
2016-10-18T05:42:01.135Z,-0.12
2016-10-18T05:43:00.814Z,-0.14
2016-10-18T05:44:00.820Z,-0.19
2016-10-18T05:45:00.801Z,-0.19
2016-10-18T05:46:00.762Z,-0.19
2016-10-18T05:47:00.755Z,-0.17
2016-10-18T05:48:00.783Z,-0.35
2016-10-18T05:49:00.735Z,-0.3
2016-10-18T05:50:00.687Z,-0.24
2016-10-18T05:51:00.688Z,-0.27
2016-10-18T05:52:00.685Z,-0.21
2016-10-18T05:53:00.673Z,-0.31
2016-10-18T05:54:00.626Z,-0.34
2016-10-18T05:55:00.624Z,-0.21
2016-10-18T05:56:00.611Z,-0.17
2016-10-18T05:57:00.607Z,-0.19
2016-10-18T05:58:00.586Z,-0.17
2016-10-18T05:59:00.576Z,-0.12
2016-10-18T06:00:00.524Z,-0.16
2016-10-18T06:01:00.547Z,-0.32
2016-10-18T06:02:00.515Z,-0.26
2016-10-18T06:03:00.495Z,-0.31
2016-10-18T06:04:00.467Z,-0.31
2016-10-18T06:05:00.446Z,-0.35
2016-10-18T06:06:00.448Z,-0.31
2016-10-18T06:07:00.414Z,-0.32
2016-10-18T06:08:00.427Z,-0.27
2016-10-18T06:09:00.411Z,-0.35
2016-10-18T06:10:00.398Z,-0.31
2016-10-18T06:11:00.377Z,-0.34
2016-10-18T06:12:00.329Z,-0.34
2016-10-18T06:13:00.313Z,-0.2
2016-10-18T06:14:00.326Z,-0.34
2016-10-18T06:15:00.279Z,-0.31
2016-10-18T06:16:00.264Z,-0.3
2016-10-18T06:17:00.264Z,-0.32
2016-10-18T06:18:00.238Z,-0.3
2016-10-18T06:19:00.228Z,-0.34
2016-10-18T06:20:00.231Z,-0.3
2016-10-18T06:21:00.228Z,-0.08
2016-10-18T06:22:00.197Z,-0.2
2016-10-18T06:23:00.161Z,-0.23
2016-10-18T06:24:00.147Z,-0.38
2016-10-18T06:25:00.130Z,-0.17
2016-10-18T06:26:00.116Z,-0.19
2016-10-18T06:27:00.107Z,-0.05
2016-10-18T06:28:00.100Z,-0.08
2016-10-18T06:29:00.083Z,-0.13
2016-10-18T06:30:00.062Z,-0.03
2016-10-18T06:31:00.043Z,-0.12
2016-10-18T06:32:00.038Z,-0.12
2016-10-18T06:33:00.004Z,-0.08
2016-10-18T06:33:59.967Z,-0.05
2016-10-18T06:34:59.967Z,0.15
2016-10-18T06:35:59.954Z,0.13
2016-10-18T06:37:00.234Z,0.1
2016-10-18T06:37:59.937Z,0.15
2016-10-18T06:38:59.912Z,0.07
2016-10-18T06:39:59.908Z,0.2
2016-10-18T06:40:59.894Z,0.19
2016-10-18T06:41:59.856Z,0.15
2016-10-18T06:42:59.833Z,0.16
2016-10-18T06:43:59.830Z,0.15
2016-10-18T06:44:59.807Z,0.12
2016-10-18T06:45:59.814Z,0.07
2016-10-18T06:46:59.784Z,0.07
2016-10-18T06:47:59.761Z,-0.05
2016-10-18T06:48:59.746Z,-0.05
2016-10-18T06:49:59.785Z,-0.02
2016-10-18T06:50:59.714Z,-0.08
2016-10-18T06:51:59.708Z,-0.13
2016-10-18T06:52:59.683Z,-0.12
2016-10-18T06:53:59.660Z,-0.14
2016-10-18T06:54:59.666Z,-0.01
2016-10-18T06:55:59.645Z,-0.14
2016-10-18T06:56:59.623Z,-0.13
2016-10-18T06:57:59.609Z,-0.06
2016-10-18T06:58:59.600Z,-0.08
2016-10-18T06:59:59.577Z,0.15
2016-10-18T07:00:59.546Z,0.25
2016-10-18T07:01:59.540Z,0.38
2016-10-18T07:02:59.548Z,0.31
2016-10-18T07:03:59.497Z,0.13
2016-10-18T07:04:59.501Z,0.08
2016-10-18T07:05:59.686Z,0.15
2016-10-18T07:06:59.674Z,0.22
2016-10-18T07:07:59.433Z,0.31
2016-10-18T07:08:59.419Z,0.37
2016-10-18T07:09:59.435Z,0.33
2016-10-18T07:10:59.402Z,0.17
2016-10-18T07:11:59.429Z,0.02
2016-10-18T07:12:59.371Z,0.07
2016-10-18T07:13:59.418Z,0.07
2016-10-18T07:14:59.341Z,0.05
2016-10-18T07:15:59.349Z,-0.01
2016-10-18T07:16:59.328Z,-0.01
2016-10-18T07:17:59.312Z,-0.06
2016-10-18T07:18:59.274Z,-0.16
2016-10-18T07:19:59.261Z,-0.08
2016-10-18T07:20:59.259Z,0.08
2016-10-18T07:21:59.216Z,0.08
2016-10-18T07:22:59.202Z,0.15
2016-10-18T07:23:59.197Z,0.07
2016-10-18T07:24:59.217Z,0.2
2016-10-18T07:25:59.153Z,0.43
2016-10-18T07:26:59.163Z,0.35
2016-10-18T07:27:59.134Z,0.41
2016-10-18T07:28:59.129Z,0.34
2016-10-18T07:29:59.115Z,0.12
2016-10-18T07:30:59.092Z,0.12
2016-10-18T07:31:59.055Z,0.16
2016-10-18T07:32:59.047Z,0.2
2016-10-18T07:33:59.053Z,0.23
2016-10-18T07:34:59.635Z,0.26
2016-10-18T07:35:59.206Z,0.2
2016-10-18T07:36:58.992Z,0.16
2016-10-18T07:37:58.992Z,0.2
2016-10-18T07:38:58.975Z,0.01
2016-10-18T07:39:58.954Z,0.01
2016-10-18T07:40:58.912Z,-0.01
2016-10-18T07:41:58.914Z,0.15
2016-10-18T07:42:58.901Z,0.05
2016-10-18T07:43:58.934Z,-0.02
2016-10-18T07:44:58.864Z,0.05
2016-10-18T07:45:58.852Z,0.16
2016-10-18T07:46:58.838Z,0.34
2016-10-18T07:47:58.817Z,0.43
2016-10-18T07:48:58.800Z,0.37
2016-10-18T07:49:58.785Z,0.6
2016-10-18T07:50:58.751Z,0.63
2016-10-18T07:51:58.746Z,0.45
2016-10-18T07:52:58.752Z,0.37
2016-10-18T07:53:58.743Z,0.2
2016-10-18T07:54:58.748Z,0.1
2016-10-18T07:55:58.701Z,0.12
2016-10-18T07:56:58.682Z,0.19
2016-10-18T07:57:58.667Z,0.19
2016-10-18T07:58:58.658Z,0.31
2016-10-18T07:59:58.642Z,0.3
2016-10-18T08:00:58.631Z,0.25
2016-10-18T08:01:58.600Z,0.3
2016-10-18T08:02:58.571Z,0.37
2016-10-18T08:03:58.569Z,0.37
2016-10-18T08:04:58.789Z,0.33
2016-10-18T08:05:58.760Z,0.35
2016-10-18T08:06:58.538Z,0.37
2016-10-18T08:07:58.501Z,0.48
2016-10-18T08:08:58.505Z,0.49
2016-10-18T08:09:58.497Z,0.45
2016-10-18T08:10:58.792Z,0.45
2016-10-18T08:11:58.450Z,0.62
2016-10-18T08:12:58.442Z,0.78
2016-10-18T08:13:58.424Z,0.93
2016-10-18T08:14:58.404Z,0.8
2016-10-18T08:15:58.409Z,0.74
2016-10-18T08:16:58.375Z,0.84
2016-10-18T08:17:58.356Z,0.96
2016-10-18T08:18:58.342Z,0.98
2016-10-18T08:19:58.318Z,1.08
2016-10-18T08:20:58.327Z,1.02
2016-10-18T08:21:58.305Z,1.06
2016-10-18T08:22:58.275Z,1.06
2016-10-18T08:23:58.286Z,1.04
2016-10-18T08:24:58.249Z,1.13
2016-10-18T08:25:58.232Z,1.08
2016-10-18T08:26:58.233Z,1.08
2016-10-18T08:27:58.257Z,1.08
2016-10-18T08:28:58.208Z,1.06
2016-10-18T08:29:58.185Z,1.1
2016-10-18T08:30:58.164Z,1.11
2016-10-18T08:31:58.144Z,1.02
2016-10-18T08:32:58.136Z,1.1
2016-10-18T08:33:58.321Z,1.11
2016-10-18T08:34:58.332Z,1.11
2016-10-18T08:35:58.110Z,1.08
2016-10-18T08:36:58.087Z,0.95
2016-10-18T08:37:58.068Z,0.81
2016-10-18T08:38:58.060Z,0.78
2016-10-18T08:39:58.054Z,0.74
2016-10-18T08:40:58.054Z,0.77
2016-10-18T08:41:58.027Z,0.77
2016-10-18T08:42:58.023Z,0.64
2016-10-18T08:43:58.021Z,0.8
2016-10-18T08:44:57.976Z,0.77
2016-10-18T08:45:57.946Z,0.92
2016-10-18T08:46:57.958Z,1
2016-10-18T08:47:57.925Z,0.93
2016-10-18T08:48:57.923Z,0.93
2016-10-18T08:49:57.921Z,0.82
2016-10-18T08:50:57.885Z,0.81
2016-10-18T08:51:57.882Z,0.71
2016-10-18T08:52:57.883Z,0.74
2016-10-18T08:53:57.829Z,0.71
2016-10-18T08:54:57.814Z,0.72
2016-10-18T08:55:57.932Z,0.77
2016-10-18T08:56:57.819Z,0.77
2016-10-18T08:57:57.808Z,0.81
2016-10-18T08:58:57.807Z,0.64
2016-10-18T08:59:57.750Z,0.64
2016-10-18T09:00:57.761Z,0.52
2016-10-18T09:01:57.707Z,0.48
2016-10-18T09:02:57.705Z,0.59
2016-10-18T09:03:57.681Z,0.41
2016-10-18T09:04:57.876Z,0.3
2016-10-18T09:05:57.648Z,0.45
2016-10-18T09:06:57.656Z,0.49
2016-10-18T09:07:57.630Z,0.57
2016-10-18T09:08:57.611Z,0.62
2016-10-18T09:09:57.595Z,0.62
2016-10-18T09:10:57.598Z,0.59
2016-10-18T09:11:57.573Z,0.59
2016-10-18T09:12:57.564Z,0.51
2016-10-18T09:13:57.535Z,0.37
2016-10-18T09:14:57.510Z,0.4
2016-10-18T09:15:57.513Z,0.34
2016-10-18T09:16:57.483Z,0.35
2016-10-18T09:17:57.483Z,0.19
2016-10-18T09:18:57.460Z,0.28
2016-10-18T09:19:57.436Z,0.12
2016-10-18T09:20:57.420Z,0.28
2016-10-18T09:21:57.400Z,0.31
2016-10-18T09:22:57.395Z,0.26
2016-10-18T09:23:57.366Z,0.4
2016-10-18T09:24:57.357Z,0.37
2016-10-18T09:25:57.325Z,0.35
2016-10-18T09:26:57.310Z,0.37
2016-10-18T09:27:57.337Z,0.34
2016-10-18T09:28:57.309Z,0.63
2016-10-18T09:29:57.274Z,0.77
2016-10-18T09:30:57.272Z,0.77
2016-10-18T09:31:57.243Z,0.88
2016-10-18T09:32:57.241Z,1.07
2016-10-18T09:33:57.227Z,1.04
2016-10-18T09:34:57.191Z,1
2016-10-18T09:35:57.192Z,0.99
2016-10-18T09:36:57.212Z,1.1
2016-10-18T09:37:57.150Z,1.06
2016-10-18T09:38:57.134Z,1.14
2016-10-18T09:39:57.131Z,1.1
2016-10-18T09:40:57.103Z,1.14
2016-10-18T09:41:57.183Z,1.1
2016-10-18T09:42:57.053Z,0.99
2016-10-18T09:43:57.055Z,1.17
2016-10-18T09:44:57.056Z,1.1
2016-10-18T09:45:57.014Z,1.16
2016-10-18T09:46:56.999Z,1.04
2016-10-18T09:47:57.012Z,1
2016-10-18T09:48:56.976Z,1.17
2016-10-18T09:49:56.973Z,1.16
2016-10-18T09:50:56.938Z,1.11
2016-10-18T09:51:56.930Z,1.14
2016-10-18T09:52:56.938Z,1.18
2016-10-18T09:53:56.903Z,1.14
2016-10-18T09:54:56.915Z,1.16
2016-10-18T09:55:56.903Z,1.13
2016-10-18T09:56:56.873Z,1.14
2016-10-18T09:57:56.857Z,1.02
2016-10-18T09:58:56.850Z,1.02
2016-10-18T09:59:56.810Z,1.16
2016-10-18T10:00:56.810Z,1.07
2016-10-18T10:01:56.785Z,1.11
2016-10-18T10:02:56.797Z,1.04
2016-10-18T10:03:56.784Z,1.07
2016-10-18T10:04:56.760Z,1.11
2016-10-18T10:05:56.745Z,1.11
2016-10-18T10:06:56.713Z,1.02
2016-10-18T10:07:56.699Z,1.06
2016-10-18T10:08:56.695Z,1.11
2016-10-18T10:09:56.696Z,1.11
2016-10-18T10:10:56.674Z,1.06
2016-10-18T10:11:56.650Z,1.08
2016-10-18T10:12:56.637Z,1.06
2016-10-18T10:13:56.613Z,1.06
2016-10-18T10:14:56.589Z,1.06
2016-10-18T10:15:56.602Z,1.1
2016-10-18T10:16:56.565Z,1.1
2016-10-18T10:17:56.556Z,0.99
2016-10-18T10:18:56.547Z,1.11
2016-10-18T10:19:56.532Z,1.08
2016-10-18T10:20:56.518Z,1.11
2016-10-18T10:21:56.504Z,1.1
2016-10-18T10:22:56.493Z,1.08
2016-10-18T10:23:56.460Z,1.07
2016-10-18T10:24:56.467Z,1.07
2016-10-18T10:25:56.446Z,1.11
2016-10-18T10:26:56.465Z,1.07
2016-10-18T10:27:56.428Z,1.07
2016-10-18T10:28:56.389Z,0.99
2016-10-18T10:29:56.388Z,1.04
2016-10-18T10:30:56.372Z,1.08
2016-10-18T10:31:56.680Z,1.07
2016-10-18T10:32:56.354Z,1.11
2016-10-18T10:33:56.645Z,1.14
2016-10-18T10:34:56.330Z,1
2016-10-18T10:35:56.307Z,1.1
2016-10-18T10:36:56.303Z,1.02
2016-10-18T10:37:56.262Z,1.11
2016-10-18T10:38:56.252Z,1.17
2016-10-18T10:39:56.268Z,1.07
2016-10-18T10:40:56.245Z,1.16
2016-10-18T10:41:56.256Z,1.08
2016-10-18T10:42:56.176Z,1.16
2016-10-18T10:43:56.190Z,1.17
2016-10-18T10:44:56.146Z,1.13
2016-10-18T10:45:56.131Z,1.21
2016-10-18T10:46:56.120Z,1.2
2016-10-18T10:47:56.131Z,1.16
2016-10-18T10:48:56.102Z,1
2016-10-18T10:49:56.079Z,1.21
2016-10-18T10:50:56.089Z,1.11
2016-10-18T10:51:56.119Z,1.02
2016-10-18T10:52:56.067Z,1.04
2016-10-18T10:53:56.076Z,0.99
2016-10-18T10:54:56.034Z,1
2016-10-18T10:55:56.042Z,1
2016-10-18T10:56:56.004Z,1.07
2016-10-18T10:57:55.973Z,0.96
2016-10-18T10:58:55.974Z,0.99
2016-10-18T10:59:55.931Z,0.78
2016-10-18T11:00:55.914Z,0.59
2016-10-18T11:01:55.914Z,0.6
2016-10-18T11:02:55.901Z,0.56
2016-10-18T11:03:55.891Z,0.51
2016-10-18T11:04:55.869Z,0.59
2016-10-18T11:05:55.857Z,0.64
2016-10-18T11:06:55.841Z,0.51
2016-10-18T11:07:55.803Z,0.48
2016-10-18T11:08:55.812Z,0.44
2016-10-18T11:09:55.791Z,0.26
2016-10-18T11:10:55.824Z,0.28
2016-10-18T11:11:55.746Z,0.34
2016-10-18T11:12:55.733Z,0.33
2016-10-18T11:13:55.717Z,0.53
2016-10-18T11:14:55.704Z,0.67
2016-10-18T11:15:55.687Z,0.48
2016-10-18T11:16:55.682Z,0.44
2016-10-18T11:17:55.680Z,0.62
2016-10-18T11:18:55.631Z,0.57
2016-10-18T11:19:55.628Z,0.68
2016-10-18T11:20:55.598Z,0.7
2016-10-18T11:21:55.597Z,0.81
2016-10-18T11:22:55.595Z,1.07
2016-10-18T11:23:55.567Z,1.04
2016-10-18T11:24:55.530Z,1.02
2016-10-18T11:25:55.538Z,1.04
2016-10-18T11:26:55.524Z,1.02
2016-10-18T11:27:55.512Z,1.1
2016-10-18T11:28:55.470Z,1.08
2016-10-18T11:29:55.486Z,1.07
2016-10-18T11:30:55.448Z,1.07
2016-10-18T11:31:55.475Z,1.2
2016-10-18T11:32:55.435Z,1.16
2016-10-18T11:33:55.403Z,1.14
2016-10-18T11:34:55.397Z,1.1
2016-10-18T11:35:55.374Z,1.07
2016-10-18T11:36:55.373Z,1.11
2016-10-18T11:37:55.345Z,1.18
2016-10-18T11:38:55.317Z,1.17
2016-10-18T11:39:55.324Z,1.11
2016-10-18T11:40:55.299Z,1.11
2016-10-18T11:41:55.298Z,1.14
2016-10-18T11:42:55.286Z,1.18
2016-10-18T11:43:55.274Z,1.11
2016-10-18T11:44:55.267Z,1.24
2016-10-18T11:45:55.235Z,1.13
2016-10-18T11:46:55.216Z,1.2
2016-10-18T11:47:55.217Z,1.16
2016-10-18T11:48:55.200Z,1.13
2016-10-18T11:49:55.201Z,1.16
2016-10-18T11:50:55.165Z,1.14
2016-10-18T11:51:55.152Z,1.14
2016-10-18T11:52:55.142Z,1.1
2016-10-18T11:53:55.120Z,1.17
2016-10-18T11:54:55.113Z,1.1
2016-10-18T11:55:55.117Z,1.02
2016-10-18T11:56:55.095Z,1.08
2016-10-18T11:57:55.076Z,1.14
2016-10-18T11:58:55.073Z,1.17
2016-10-18T11:59:55.038Z,1.07
2016-10-18T12:00:55.043Z,1.02
2016-10-18T12:01:55.008Z,1.08
2016-10-18T12:02:55.007Z,1.06
2016-10-18T12:03:54.997Z,1.04
2016-10-18T12:04:54.985Z,1.04
2016-10-18T12:05:54.963Z,1.02
2016-10-18T12:06:54.951Z,1.07
2016-10-18T12:07:54.924Z,1.04
2016-10-18T12:08:54.907Z,1.13
2016-10-18T12:09:55.013Z,1.17
2016-10-18T12:10:54.875Z,1.17
2016-10-18T12:11:54.869Z,1.1
2016-10-18T12:12:54.869Z,1.07
2016-10-18T12:13:54.855Z,1.18
2016-10-18T12:14:54.944Z,0.99
2016-10-18T12:15:54.845Z,1.11
2016-10-18T12:16:55.091Z,1.04
2016-10-18T12:17:54.792Z,1.14
2016-10-18T12:18:54.751Z,0.98
2016-10-18T12:19:54.750Z,0.99
2016-10-18T12:20:54.749Z,1.08
2016-10-18T12:21:54.735Z,1.06
2016-10-18T12:22:54.697Z,1
2016-10-18T12:23:54.688Z,0.99
2016-10-18T12:24:54.683Z,1.08
2016-10-18T12:25:54.694Z,0.99
2016-10-18T12:26:54.654Z,1.1
2016-10-18T12:27:54.630Z,1.08
2016-10-18T12:28:54.621Z,1.14
2016-10-18T12:29:54.942Z,1.04
2016-10-18T12:30:54.584Z,1.06
2016-10-18T12:31:54.578Z,1.07
2016-10-18T12:32:54.585Z,1
2016-10-18T12:33:54.542Z,1.17
2016-10-18T12:34:54.525Z,1.04
2016-10-18T12:35:54.511Z,1.1
2016-10-18T12:36:54.535Z,1.07
2016-10-18T12:37:54.478Z,0.96
2016-10-18T12:38:54.458Z,1
2016-10-18T12:39:54.500Z,1.07
2016-10-18T12:40:54.438Z,1.07
2016-10-18T12:41:54.458Z,1
2016-10-18T12:42:54.415Z,1.11
2016-10-18T12:43:54.423Z,1.08
2016-10-18T12:44:54.383Z,1.06
2016-10-18T12:45:54.361Z,1.06
2016-10-18T12:46:54.340Z,1.1
2016-10-18T12:47:54.398Z,1.06
2016-10-18T12:48:54.318Z,1.06
2016-10-18T12:49:54.334Z,1.1
2016-10-18T12:50:54.338Z,1.02
2016-10-18T12:51:54.290Z,1.07
2016-10-18T12:52:54.286Z,1.14
2016-10-18T12:53:54.272Z,1.06
2016-10-18T12:54:54.251Z,1.02
2016-10-18T12:55:54.233Z,1.16
2016-10-18T12:56:54.236Z,1.02
2016-10-18T12:57:54.204Z,1.16
2016-10-18T12:58:54.199Z,1.08
2016-10-18T12:59:54.175Z,1.06
2016-10-18T13:00:54.145Z,1.04
2016-10-18T13:01:54.165Z,1.06
2016-10-18T13:02:54.109Z,1.13
2016-10-18T13:03:54.115Z,1.02
2016-10-18T13:04:54.177Z,1.06
2016-10-18T13:05:54.094Z,1.1
2016-10-18T13:06:54.114Z,1.07
2016-10-18T13:07:54.093Z,1.04
2016-10-18T13:08:54.076Z,1.11
2016-10-18T13:09:54.038Z,1.1
2016-10-18T13:10:54.010Z,1.07
2016-10-18T13:11:54.017Z,1.1
2016-10-18T13:12:53.979Z,0.98
2016-10-18T13:13:53.979Z,0.88
2016-10-18T13:14:53.963Z,0.78
2016-10-18T13:15:53.967Z,0.75
2016-10-18T13:16:53.940Z,0.75
2016-10-18T13:17:53.937Z,0.72